createdAt,value
2022-11-16T00:01:17.137Z,18.60
2022-11-16T00:03:44.739Z,19.10
2022-11-16T00:06:13.129Z,18.48
2022-11-16T00:08:44.620Z,17.88
2022-11-16T00:11:18.254Z,13.95
2022-11-16T00:13:45.712Z,19.88
2022-11-16T00:16:15.956Z,18.92
2022-11-16T00:18:43.977Z,20.00
2022-11-16T00:21:11.839Z,19.55
2022-11-16T00:23:39.479Z,19.08
2022-11-16T00:26:08.328Z,16.90
2022-11-16T00:28:35.743Z,16.58
2022-11-16T00:31:04.666Z,17.67
2022-11-16T00:33:32.256Z,17.95
2022-11-16T00:36:01.886Z,16.67
2022-11-16T00:38:31.074Z,16.15
2022-11-16T00:40:58.099Z,16.50
2022-11-16T00:43:25.221Z,16.13
2022-11-16T00:45:52.386Z,15.43
2022-11-16T00:48:19.712Z,16.52
2022-11-16T00:50:46.755Z,16.67
2022-11-16T00:53:16.322Z,15.57
2022-11-16T00:55:44.716Z,14.75
2022-11-16T00:58:12.482Z,15.80
2022-11-16T01:00:40.837Z,17.77
2022-11-16T01:03:08.446Z,15.23
2022-11-16T01:05:35.418Z,17.20
2022-11-16T01:08:02.255Z,17.27
2022-11-16T01:10:29.722Z,15.95
2022-11-16T01:12:56.602Z,16.55
2022-11-16T01:15:26.625Z,14.95
2022-11-16T01:17:55.705Z,14.10
2022-11-16T01:20:25.398Z,13.23
2022-11-16T01:22:52.813Z,12.15
2022-11-16T01:25:20.186Z,11.88
2022-11-16T01:27:47.693Z,12.02
2022-11-16T01:30:16.446Z,11.30
2022-11-16T01:32:43.445Z,11.57
2022-11-16T01:35:14.743Z,11.38
2022-11-16T01:37:41.584Z,11.10
2022-11-16T01:40:09.655Z,11.80
2022-11-16T01:42:36.560Z,12.52
2022-11-16T01:45:08.439Z,11.90
2022-11-16T01:47:35.323Z,11.40
2022-11-16T01:50:14.482Z,11.43
2022-11-16T01:52:59.778Z,10.52
2022-11-16T01:55:30.753Z,10.35
2022-11-16T01:57:57.785Z,10.55
2022-11-16T02:00:24.780Z,10.27
2022-11-16T02:02:51.618Z,10.23
2022-11-16T02:05:22.511Z,9.23
2022-11-16T02:08:19.490Z,9.98
2022-11-16T02:11:31.026Z,9.63
2022-11-16T02:14:00.997Z,7.93
2022-11-16T02:16:49.832Z,8.68
2022-11-16T02:19:34.722Z,8.95
2022-11-16T02:22:18.235Z,10.00
2022-11-16T02:24:50.516Z,9.15
2022-11-16T02:27:53.474Z,9.60
2022-11-16T02:30:21.440Z,6.97
2022-11-16T02:33:01.715Z,7.45
2022-11-16T02:35:38.317Z,8.18
2022-11-16T02:38:27.997Z,8.82
2022-11-16T02:41:01.770Z,6.97
2022-11-16T02:43:49.844Z,7.78
2022-11-16T02:46:21.966Z,7.28
2022-11-16T02:51:18.795Z,7.68
2022-11-16T02:54:12.945Z,7.50
2022-11-16T02:56:54.149Z,7.78
2022-11-16T02:59:22.729Z,7.63
2022-11-16T03:02:01.337Z,8.25
2022-11-16T03:04:37.579Z,6.80
2022-11-16T03:07:08.998Z,7.53
2022-11-16T03:09:38.948Z,7.35
2022-11-16T03:12:10.565Z,7.55
2022-11-16T03:14:52.135Z,7.30
2022-11-16T03:17:45.080Z,7.93
2022-11-16T03:20:14.133Z,8.55
2022-11-16T03:22:45.072Z,8.73
2022-11-16T03:25:16.006Z,8.88
2022-11-16T03:27:49.829Z,8.73
2022-11-16T03:30:23.727Z,9.77
2022-11-16T03:33:17.042Z,9.05
2022-11-16T03:35:55.542Z,8.70
2022-11-16T03:38:26.757Z,9.05
2022-11-16T03:40:56.367Z,8.80
2022-11-16T03:43:25.341Z,8.43
2022-11-16T03:45:52.947Z,8.60
2022-11-16T03:48:19.913Z,8.35
2022-11-16T03:50:46.992Z,7.53
2022-11-16T03:53:13.811Z,8.07
2022-11-16T03:55:42.570Z,8.15
2022-11-16T03:58:12.457Z,7.95
2022-11-16T04:00:39.722Z,8.30
2022-11-16T04:03:06.620Z,7.28
2022-11-16T04:05:52.049Z,7.38
2022-11-16T04:08:37.337Z,6.70
2022-11-16T04:11:22.756Z,7.93
2022-11-16T04:14:09.557Z,9.32
2022-11-16T04:16:54.853Z,10.25
2022-11-16T04:19:40.208Z,10.35
2022-11-16T04:22:39.965Z,10.02
2022-11-16T04:25:16.251Z,9.88
2022-11-16T04:28:01.864Z,10.13
2022-11-16T04:30:49.274Z,10.93
2022-11-16T04:33:34.901Z,10.90
2022-11-16T04:36:22.601Z,10.35
2022-11-16T04:38:49.615Z,11.93
2022-11-16T04:41:34.930Z,12.27
2022-11-16T04:44:01.780Z,13.45
2022-11-16T04:46:47.280Z,13.35
2022-11-16T04:49:14.130Z,13.05
2022-11-16T04:51:40.980Z,14.50
2022-11-16T04:54:07.840Z,13.85
2022-11-16T04:56:34.649Z,14.52
2022-11-16T04:59:01.494Z,14.32
2022-11-16T05:01:47.202Z,14.20
2022-11-16T05:04:14.155Z,13.23
2022-11-16T05:06:41.049Z,12.82
2022-11-16T05:09:08.063Z,12.60
2022-11-16T05:11:35.149Z,11.57
2022-11-16T05:14:02.557Z,11.20
2022-11-16T05:16:29.494Z,10.50
2022-11-16T05:19:14.728Z,11.00
2022-11-16T05:21:41.905Z,10.15
2022-11-16T05:24:27.781Z,10.40
2022-11-16T05:26:54.611Z,11.35
2022-11-16T05:29:21.406Z,11.45
2022-11-16T05:31:51.712Z,11.70
2022-11-16T05:34:18.500Z,11.60
2022-11-16T05:36:45.355Z,12.18
2022-11-16T05:39:12.652Z,11.80
2022-11-16T05:41:39.745Z,10.15
2022-11-16T05:46:06.887Z,12.10
2022-11-16T05:48:34.412Z,10.82
2022-11-16T05:51:01.432Z,13.55
2022-11-16T05:53:28.348Z,15.48
2022-11-16T05:55:55.220Z,12.85
2022-11-16T05:58:22.002Z,12.57
2022-11-16T06:00:49.226Z,10.73
2022-11-16T06:03:16.280Z,9.75
2022-11-16T06:05:43.132Z,9.27
2022-11-16T06:08:09.884Z,6.60
2022-11-16T06:10:37.504Z,5.68
2022-11-16T06:13:04.874Z,4.75
2022-11-16T06:15:31.694Z,5.95
2022-11-16T06:17:58.481Z,7.22
2022-11-16T06:20:25.314Z,7.00
2022-11-16T06:22:52.552Z,6.65
2022-11-16T06:25:19.683Z,5.30
2022-11-16T06:27:46.819Z,5.35
2022-11-16T06:30:13.866Z,5.07
2022-11-16T06:32:40.762Z,4.80
2022-11-16T06:35:10.616Z,4.55
2022-11-16T06:37:37.389Z,4.40
2022-11-16T06:40:05.025Z,4.45
2022-11-16T06:42:32.187Z,5.20
2022-11-16T06:44:59.103Z,7.43
2022-11-16T06:47:30.587Z,7.82
2022-11-16T06:50:00.092Z,6.05
2022-11-16T06:52:28.510Z,5.47
2022-11-16T06:54:55.546Z,5.30
2022-11-16T06:57:23.446Z,4.82
2022-11-16T06:59:50.562Z,4.47
2022-11-16T07:02:18.177Z,5.45
2022-11-16T07:04:47.269Z,5.72
2022-11-16T07:10:03.606Z,6.10
2022-11-16T07:12:30.502Z,4.97
2022-11-16T07:14:57.470Z,4.50
2022-11-16T07:17:24.907Z,4.95
2022-11-16T07:22:39.724Z,5.07
2022-11-16T07:25:07.344Z,5.70
2022-11-16T07:27:36.579Z,5.82
2022-11-16T07:30:04.747Z,5.93
2022-11-16T07:32:35.337Z,5.85
2022-11-16T07:35:02.800Z,4.82
2022-11-16T07:37:30.264Z,5.50
2022-11-16T07:39:57.500Z,8.13
2022-11-16T07:42:24.297Z,23.75
2022-11-16T07:44:51.482Z,8.75
2022-11-16T07:47:18.665Z,4.80
2022-11-16T07:49:49.848Z,5.15
2022-11-16T07:52:16.725Z,4.97
2022-11-16T07:54:43.639Z,4.72
2022-11-16T07:57:10.528Z,50.17
2022-11-16T07:59:37.424Z,24.15
2022-11-16T08:02:05.019Z,8.57
2022-11-16T08:04:32.549Z,5.93
2022-11-16T08:06:59.656Z,7.60
2022-11-16T08:09:26.908Z,17.98
2022-11-16T08:11:53.775Z,22.50
2022-11-16T08:14:20.854Z,39.38
2022-11-16T08:16:47.807Z,7.15
2022-11-16T08:19:14.639Z,5.68
2022-11-16T08:21:41.624Z,5.40
2022-11-16T08:24:08.935Z,5.20
2022-11-16T08:26:35.829Z,4.07
2022-11-16T08:29:02.684Z,3.10
2022-11-16T08:31:30.442Z,3.30
2022-11-16T08:34:00.309Z,3.10
2022-11-16T08:36:27.277Z,3.60
2022-11-16T08:38:54.490Z,3.95
2022-11-16T08:41:22.315Z,5.30
2022-11-16T08:43:55.611Z,5.10
2022-11-16T08:46:23.038Z,6.45
2022-11-16T08:48:50.094Z,6.07
2022-11-16T08:51:20.531Z,5.97
2022-11-16T08:53:49.747Z,6.50
2022-11-16T08:56:18.154Z,6.32
2022-11-16T08:58:47.372Z,5.40
2022-11-16T09:01:24.942Z,5.45
2022-11-16T09:03:55.829Z,5.18
2022-11-16T09:06:25.690Z,4.40
2022-11-16T09:08:54.403Z,4.00
2022-11-16T09:11:23.347Z,3.92
2022-11-16T09:13:53.096Z,4.20
2022-11-16T09:16:21.361Z,4.18
2022-11-16T09:18:51.830Z,3.80
2022-11-16T09:21:24.432Z,6.88
2022-11-16T09:23:52.900Z,8.02
2022-11-16T09:26:22.984Z,4.43
2022-11-16T09:29:00.940Z,5.90
2022-11-16T09:31:29.511Z,4.57
2022-11-16T09:33:59.091Z,4.05
2022-11-16T09:36:28.255Z,4.15
2022-11-16T09:39:29.447Z,4.20
2022-11-16T09:42:00.262Z,4.45
2022-11-16T09:45:08.893Z,3.50
2022-11-16T09:47:49.139Z,3.50
2022-11-16T09:50:34.154Z,3.53
2022-11-16T09:53:24.913Z,3.60
2022-11-16T09:56:01.048Z,3.38
2022-11-16T09:58:42.730Z,3.90
2022-11-16T10:03:54.290Z,3.78
2022-11-16T10:08:54.045Z,4.15
2022-11-16T10:11:49.056Z,4.47
2022-11-16T10:14:53.287Z,4.18
2022-11-16T10:17:51.239Z,4.18
2022-11-16T10:20:49.231Z,2.65
2022-11-16T10:23:31.227Z,3.10
2022-11-16T10:26:10.738Z,3.50
2022-11-16T10:28:59.270Z,3.13
2022-11-16T10:31:52.214Z,3.95
2022-11-16T10:34:24.894Z,4.25
2022-11-16T10:36:57.417Z,4.00
2022-11-16T10:39:26.149Z,3.80
2022-11-16T10:41:53.466Z,3.47
2022-11-16T10:44:42.159Z,3.65
2022-11-16T10:47:33.914Z,4.68
2022-11-16T10:50:15.129Z,3.60
2022-11-16T10:52:43.621Z,3.20
2022-11-16T10:55:19.261Z,3.10
2022-11-16T11:01:07.619Z,2.33
2022-11-16T11:03:36.586Z,2.72
2022-11-16T11:09:01.289Z,9.32
2022-11-16T11:11:47.868Z,4.30
2022-11-16T11:14:16.768Z,4.20
2022-11-16T11:16:52.216Z,5.90
2022-11-16T11:19:30.568Z,4.25
2022-11-16T11:22:00.237Z,4.00
2022-11-16T11:24:43.867Z,3.97
2022-11-16T11:27:14.343Z,7.13
2022-11-16T11:29:43.131Z,4.28
2022-11-16T11:32:23.757Z,4.38
2022-11-16T11:35:06.971Z,3.85
2022-11-16T11:37:38.489Z,4.75
2022-11-16T11:40:34.275Z,4.50
2022-11-16T11:43:04.301Z,4.50
2022-11-16T11:46:00.624Z,4.22
2022-11-16T11:48:49.274Z,4.03
2022-11-16T11:51:43.092Z,4.32
2022-11-16T11:54:24.898Z,4.40
2022-11-16T11:56:53.813Z,4.43
2022-11-16T11:59:25.317Z,4.70
2022-11-16T12:02:22.033Z,4.43
2022-11-16T12:05:13.143Z,4.75
2022-11-16T12:07:43.637Z,4.88
2022-11-16T12:14:01.471Z,4.75
2022-11-16T12:22:45.041Z,4.93
2022-11-16T12:25:44.889Z,4.30
2022-11-16T12:28:51.408Z,4.65
2022-11-16T12:31:36.261Z,4.95
2022-11-16T12:34:13.266Z,5.60
2022-11-16T12:37:27.818Z,5.05
2022-11-16T12:40:20.230Z,4.85
2022-11-16T12:42:52.804Z,5.45
2022-11-16T12:45:32.596Z,5.10
2022-11-16T12:48:27.819Z,5.10
2022-11-16T12:51:42.103Z,5.60
2022-11-16T12:54:33.506Z,6.32
2022-11-16T12:57:27.268Z,6.53
2022-11-16T13:00:04.767Z,6.60
2022-11-16T13:02:54.467Z,6.47
2022-11-16T13:05:31.033Z,6.90
2022-11-16T13:08:03.007Z,6.90
2022-11-16T13:10:37.439Z,6.13
2022-11-16T13:15:59.753Z,7.05
2022-11-16T13:18:28.551Z,6.93
2022-11-16T13:21:10.295Z,6.70
2022-11-16T13:24:04.793Z,6.60
2022-11-16T13:27:02.710Z,6.25
2022-11-16T13:29:47.071Z,6.63
2022-11-16T13:32:46.033Z,8.15
2022-11-16T13:35:18.164Z,6.72
2022-11-16T13:37:52.351Z,7.05
2022-11-16T13:40:27.461Z,6.78
2022-11-16T13:43:09.989Z,6.07
2022-11-16T13:48:45.895Z,7.25
2022-11-16T13:51:31.252Z,6.28
2022-11-16T13:56:51.542Z,6.25
2022-11-16T13:59:35.430Z,6.35
2022-11-16T14:02:24.788Z,6.15
2022-11-16T14:05:14.856Z,7.18
2022-11-16T14:07:50.104Z,8.68
2022-11-16T14:10:36.155Z,9.30
2022-11-16T14:13:13.592Z,12.20
2022-11-16T14:15:40.916Z,12.40
2022-11-16T14:18:09.208Z,11.70
2022-11-16T14:20:57.018Z,11.95
2022-11-16T14:23:48.920Z,12.77
2022-11-16T14:26:27.109Z,15.07
2022-11-16T14:29:03.985Z,11.40
2022-11-16T14:31:49.378Z,11.50
2022-11-16T14:35:01.724Z,10.85
2022-11-16T14:37:37.558Z,11.50
2022-11-16T14:40:21.127Z,12.38
2022-11-16T14:43:15.961Z,12.65
2022-11-16T14:45:48.830Z,13.73
2022-11-16T14:48:19.299Z,13.55
2022-11-16T14:51:18.474Z,14.82
2022-11-16T14:53:50.437Z,15.13
2022-11-16T14:56:19.098Z,16.00
2022-11-16T14:58:59.944Z,14.30
2022-11-16T15:01:31.769Z,15.27
2022-11-16T15:04:09.712Z,15.68
2022-11-16T15:06:50.723Z,14.90
2022-11-16T15:09:27.403Z,14.70
2022-11-16T15:12:13.592Z,15.38
2022-11-16T15:15:03.799Z,15.15
2022-11-16T15:17:33.465Z,27.55
2022-11-16T15:20:21.168Z,14.70
2022-11-16T15:22:53.231Z,14.70
2022-11-16T15:28:23.442Z,15.43
2022-11-16T15:30:53.435Z,15.50
2022-11-16T15:33:43.305Z,15.05
2022-11-16T15:36:51.713Z,14.23
2022-11-16T15:39:38.849Z,13.38
2022-11-16T15:42:17.688Z,14.95
2022-11-16T15:47:59.824Z,13.68
2022-11-16T15:51:10.153Z,14.30
2022-11-16T15:53:40.387Z,14.20
2022-11-16T15:56:28.115Z,13.68
2022-11-16T15:59:10.965Z,14.35
2022-11-16T16:01:50.993Z,14.90
2022-11-16T16:04:22.282Z,14.65
2022-11-16T16:07:06.176Z,15.48
2022-11-16T16:12:24.611Z,16.60
2022-11-16T16:14:52.529Z,16.13
2022-11-16T16:17:28.183Z,17.50
2022-11-16T16:20:07.164Z,17.05
2022-11-16T16:22:39.218Z,18.20
2022-11-16T16:28:14.175Z,17.67
2022-11-16T16:34:12.563Z,17.42
2022-11-16T16:36:45.018Z,19.10
2022-11-16T16:41:58.368Z,17.58
2022-11-16T16:44:31.025Z,18.58
2022-11-16T16:49:51.016Z,20.02
2022-11-16T16:58:06.282Z,22.02
2022-11-16T17:04:09.143Z,21.63
2022-11-16T17:09:41.643Z,21.40
2022-11-16T17:18:13.998Z,21.23
2022-11-16T17:26:21.712Z,20.38
2022-11-16T17:28:49.484Z,21.65
2022-11-16T17:31:20.311Z,20.52
2022-11-16T17:45:41.273Z,20.20
2022-11-16T17:48:09.638Z,20.25
2022-11-16T20:51:34.892Z,31.65
2022-11-16T21:33:42.281Z,23.20
2022-11-16T21:43:04.867Z,18.42
2022-11-16T22:26:10.482Z,14.05
2022-11-16T22:31:29.152Z,13.60
2022-11-16T22:34:00.545Z,15.82
2022-11-16T22:42:10.958Z,16.10
2022-11-16T22:44:41.000Z,14.98
2022-11-16T22:49:56.745Z,14.90
2022-11-16T23:00:44.457Z,14.88
2022-11-16T23:05:53.646Z,13.23
2022-11-16T23:14:42.669Z,10.23
2022-11-16T23:20:14.695Z,8.50
2022-11-16T23:23:35.460Z,8.32
2022-11-16T23:37:28.716Z,10.25
2022-11-16T23:39:58.839Z,9.07
2022-11-16T23:42:50.718Z,8.20
2022-11-16T23:45:19.754Z,9.95
2022-11-16T23:47:48.865Z,11.82
2022-11-16T23:50:16.530Z,11.63
2022-11-16T23:52:46.293Z,12.50
2022-11-16T23:55:16.293Z,12.60
2022-11-16T23:57:51.452Z,13.82
